createdAt,value
2022-09-27T00:00:44.544Z,23.30
2022-09-27T00:03:33.444Z,22.10
2022-09-27T00:06:22.874Z,23.40
2022-09-27T00:08:56.464Z,23.90
2022-09-27T00:11:37.942Z,22.30
2022-09-27T00:14:14.076Z,24.90
2022-09-27T00:16:48.856Z,24.90
2022-09-27T00:19:24.136Z,23.60
2022-09-27T00:21:57.524Z,22.30
2022-09-27T00:24:32.833Z,23.70
2022-09-27T00:31:38.545Z,25.90
2022-09-27T00:34:20.452Z,26.50
2022-09-27T00:36:54.512Z,26.90
2022-09-27T00:39:27.978Z,25.90
2022-09-27T00:42:02.815Z,24.50
2022-09-27T00:45:02.484Z,25.40
2022-09-27T00:47:55.784Z,26.20
2022-09-27T00:50:45.492Z,27.70
2022-09-27T00:53:42.387Z,28.70
2022-09-27T00:56:21.585Z,28.30
2022-09-27T00:59:18.927Z,28.60
2022-09-27T01:01:53.538Z,29.30
2022-09-27T01:11:20.257Z,27.30
2022-09-27T01:14:39.766Z,29.20
2022-09-27T01:17:19.300Z,28.30
2022-09-27T01:20:05.115Z,28.50
2022-09-27T01:23:03.190Z,29.70
2022-09-27T01:26:02.099Z,30.50
2022-09-27T01:28:50.630Z,30.90
2022-09-27T01:32:03.645Z,27.50
2022-09-27T01:34:36.932Z,26.90
2022-09-27T01:37:18.489Z,27.30
2022-09-27T01:40:12.324Z,27.20
2022-09-27T01:43:19.209Z,28.40
2022-09-27T01:45:57.124Z,29.60
2022-09-27T01:48:52.973Z,28.70
2022-09-27T01:51:32.889Z,26.80
2022-09-27T01:54:06.052Z,28.00
2022-09-27T01:56:55.610Z,27.30
2022-09-27T01:59:48.614Z,28.10
2022-09-27T02:02:54.418Z,28.40
2022-09-27T02:06:15.899Z,28.40
2022-09-27T02:09:12.126Z,28.70
2022-09-27T02:12:00.707Z,26.70
2022-09-27T02:14:44.685Z,28.60
2022-09-27T02:17:41.823Z,27.50
2022-09-27T02:20:27.897Z,29.90
2022-09-27T02:23:14.126Z,30.20
2022-09-27T02:28:45.225Z,31.30
2022-09-27T02:31:20.621Z,29.90
2022-09-27T02:34:08.908Z,29.60
2022-09-27T02:36:40.085Z,35.80
2022-09-27T02:39:10.971Z,28.40
2022-09-27T02:41:41.499Z,30.50
2022-09-27T02:44:15.553Z,30.20
2022-09-27T02:47:21.310Z,30.20
2022-09-27T02:50:01.012Z,30.90
2022-09-27T02:53:08.465Z,31.00
2022-09-27T02:55:55.275Z,28.10
2022-09-27T02:59:11.666Z,29.60
2022-09-27T03:02:36.610Z,27.60
2022-09-27T03:05:48.504Z,30.00
2022-09-27T03:08:21.085Z,28.60
2022-09-27T03:10:54.691Z,28.90
2022-09-27T03:13:25.405Z,27.10
2022-09-27T03:16:00.704Z,25.40
2022-09-27T03:18:53.009Z,25.50
2022-09-27T03:21:41.898Z,24.90
2022-09-27T03:24:15.648Z,25.90
2022-09-27T03:26:46.236Z,26.60
2022-09-27T03:29:19.259Z,26.10
2022-09-27T03:31:53.662Z,25.30
2022-09-27T03:34:51.837Z,25.50
2022-09-27T03:37:22.648Z,24.30
2022-09-27T03:39:53.055Z,23.70
2022-09-27T03:42:23.522Z,22.70
2022-09-27T03:44:54.717Z,24.80
2022-09-27T03:47:25.279Z,23.80
2022-09-27T03:49:55.656Z,23.40
2022-09-27T03:52:26.190Z,23.30
2022-09-27T03:55:01.850Z,24.50
2022-09-27T03:57:33.016Z,24.70
2022-09-27T04:00:08.297Z,23.00
2022-09-27T04:02:44.884Z,22.30
2022-09-27T04:05:28.663Z,20.70
2022-09-27T04:08:12.277Z,24.60
2022-09-27T04:10:44.546Z,20.40
2022-09-27T04:13:15.172Z,21.30
2022-09-27T04:15:52.517Z,21.50
2022-09-27T04:18:22.998Z,21.90
2022-09-27T04:20:53.256Z,21.40
2022-09-27T04:23:27.663Z,24.30
2022-09-27T04:26:00.149Z,21.30
2022-09-27T04:28:54.824Z,19.90
2022-09-27T04:31:25.597Z,20.30
2022-09-27T04:34:18.927Z,21.30
2022-09-27T04:36:49.333Z,20.60
2022-09-27T04:39:20.907Z,21.00
2022-09-27T04:41:51.852Z,21.50
2022-09-27T04:44:22.280Z,21.10
2022-09-27T04:46:53.628Z,21.40
2022-09-27T04:49:23.982Z,20.50
2022-09-27T04:51:54.301Z,19.00
2022-09-27T04:54:26.025Z,19.10
2022-09-27T04:57:03.746Z,19.60
2022-09-27T04:59:34.635Z,21.10
2022-09-27T05:02:05.932Z,22.30
2022-09-27T05:04:57.144Z,20.80
2022-09-27T05:07:31.921Z,21.30
2022-09-27T05:10:06.925Z,21.50
2022-09-27T05:12:37.704Z,21.70
2022-09-27T05:15:08.496Z,20.20
2022-09-27T05:17:58.608Z,19.70
2022-09-27T05:20:30.065Z,19.70
2022-09-27T05:23:11.681Z,21.30
2022-09-27T05:25:42.949Z,22.00
2022-09-27T05:28:14.480Z,22.30
2022-09-27T05:30:46.170Z,20.90
2022-09-27T05:33:21.535Z,23.60
2022-09-27T05:35:59.619Z,23.50
2022-09-27T05:38:32.465Z,20.90
2022-09-27T05:41:04.609Z,20.80
2022-09-27T05:43:36.655Z,22.30
2022-09-27T05:46:08.709Z,23.40
2022-09-27T05:48:41.272Z,24.30
2022-09-27T05:51:12.281Z,24.60
2022-09-27T05:53:44.660Z,23.20
2022-09-27T05:56:21.607Z,23.50
2022-09-27T05:59:08.598Z,23.10
2022-09-27T06:01:58.840Z,22.60
2022-09-27T06:04:58.755Z,24.10
2022-09-27T06:07:44.414Z,24.50
2022-09-27T06:10:22.165Z,26.30
2022-09-27T06:12:52.804Z,25.40
2022-09-27T06:15:39.705Z,25.30
2022-09-27T06:18:16.551Z,24.30
2022-09-27T06:20:48.335Z,24.60
2022-09-27T06:23:22.949Z,23.20
2022-09-27T06:25:55.129Z,25.10
2022-09-27T06:28:32.752Z,25.10
2022-09-27T06:31:03.172Z,25.30
2022-09-27T06:33:40.809Z,26.10
2022-09-27T06:36:14.175Z,26.80
2022-09-27T06:38:47.218Z,27.00
2022-09-27T06:41:40.349Z,25.60
2022-09-27T06:44:29.886Z,26.70
2022-09-27T06:47:19.797Z,25.80
2022-09-27T06:50:31.268Z,27.20
2022-09-27T06:53:02.637Z,27.10
2022-09-27T06:55:33.316Z,28.80
2022-09-27T06:58:22.607Z,26.40
2022-09-27T07:01:19.191Z,27.90
2022-09-27T07:04:09.532Z,25.90
2022-09-27T07:06:52.288Z,26.00
2022-09-27T07:09:27.771Z,25.60
2022-09-27T07:11:59.102Z,26.30
2022-09-27T07:14:32.139Z,26.30
2022-09-27T07:17:02.848Z,25.60
2022-09-27T07:19:40.355Z,26.20
2022-09-27T07:22:13.405Z,25.20
2022-09-27T07:24:45.667Z,25.70
2022-09-27T07:27:18.707Z,24.70
2022-09-27T07:29:49.346Z,25.80
2022-09-27T07:32:19.847Z,26.10
2022-09-27T07:34:50.805Z,26.30
2022-09-27T07:37:24.052Z,27.90
2022-09-27T07:39:54.689Z,26.00
2022-09-27T07:42:24.890Z,25.40
2022-09-27T07:44:59.936Z,24.30
2022-09-27T07:47:52.869Z,25.30
2022-09-27T07:50:39.159Z,25.00
2022-09-27T07:53:32.914Z,26.30
2022-09-27T07:56:21.755Z,27.90
2022-09-27T07:58:52.291Z,28.00
2022-09-27T08:01:22.997Z,26.30
2022-09-27T08:03:53.314Z,27.40
2022-09-27T08:06:24.350Z,26.30
2022-09-27T08:08:56.098Z,26.20
2022-09-27T08:11:27.738Z,29.20
2022-09-27T08:13:58.172Z,28.10
2022-09-27T08:16:36.083Z,28.10
2022-09-27T08:19:22.095Z,29.20
2022-09-27T08:22:25.888Z,30.90
2022-09-27T08:25:05.437Z,28.20
2022-09-27T08:27:58.160Z,27.60
2022-09-27T08:30:41.191Z,29.70
2022-09-27T08:33:11.693Z,30.70
2022-09-27T08:35:42.124Z,30.50
2022-09-27T08:38:13.408Z,32.00
2022-09-27T08:40:53.692Z,35.00
2022-09-27T08:43:54.747Z,32.00
2022-09-27T08:46:51.234Z,32.00
2022-09-27T08:49:59.352Z,33.10
2022-09-27T08:53:17.125Z,33.10
2022-09-27T08:55:54.164Z,33.80
2022-09-27T08:58:32.481Z,35.90
2022-09-27T09:01:08.788Z,35.50
2022-09-27T09:03:53.596Z,32.10
2022-09-27T09:06:50.346Z,32.60
2022-09-27T09:09:32.680Z,33.20
2022-09-27T09:12:50.318Z,36.00
2022-09-27T09:15:55.915Z,39.50
2022-09-27T09:18:56.138Z,40.70
2022-09-27T09:21:56.464Z,40.60
2022-09-27T09:24:41.991Z,43.10
2022-09-27T09:27:19.675Z,43.40
2022-09-27T09:30:20.518Z,44.00
2022-09-27T09:33:03.917Z,45.60
2022-09-27T09:35:49.356Z,48.60
2022-09-27T09:38:27.118Z,45.30
2022-09-27T09:41:24.738Z,44.60
2022-09-27T09:44:07.756Z,43.40
2022-09-27T09:46:48.408Z,43.00
2022-09-27T09:49:33.602Z,45.60
2022-09-27T09:52:16.814Z,46.30
2022-09-27T09:55:15.456Z,47.50
2022-09-27T09:58:21.612Z,47.70
2022-09-27T10:01:56.282Z,44.60
2022-09-27T10:04:29.800Z,49.20
2022-09-27T10:07:03.357Z,44.10
2022-09-27T10:09:36.905Z,45.20
2022-09-27T10:12:28.049Z,44.20
2022-09-27T10:15:03.445Z,43.90
2022-09-27T10:17:46.498Z,41.60
2022-09-27T10:20:28.973Z,39.10
2022-09-27T10:23:08.366Z,35.60
2022-09-27T10:25:56.882Z,38.60
2022-09-27T10:28:46.313Z,36.90
2022-09-27T10:31:22.392Z,35.30
2022-09-27T10:34:06.944Z,36.10
2022-09-27T10:36:43.269Z,34.50
2022-09-27T10:39:24.611Z,35.00
2022-09-27T10:42:00.652Z,34.90
2022-09-27T10:44:42.417Z,32.00
2022-09-27T10:47:26.909Z,31.60
2022-09-27T10:50:48.897Z,34.40
2022-09-27T10:53:28.464Z,31.80
2022-09-27T10:56:03.727Z,33.40
2022-09-27T10:58:40.782Z,34.90
2022-09-27T11:01:17.427Z,29.90
2022-09-27T11:04:06.924Z,35.40
2022-09-27T11:06:39.679Z,35.60
2022-09-27T11:09:20.685Z,32.30
2022-09-27T11:12:15.192Z,34.10
2022-09-27T11:15:16.536Z,38.00
2022-09-27T11:18:14.955Z,34.80
2022-09-27T11:21:06.976Z,32.70
2022-09-27T11:24:14.326Z,33.20
2022-09-27T11:27:07.113Z,32.10
2022-09-27T11:30:00.250Z,36.50
2022-09-27T11:33:02.992Z,35.10
2022-09-27T11:35:47.722Z,35.20
2022-09-27T11:38:53.714Z,34.00
2022-09-27T11:41:58.686Z,33.70
2022-09-27T11:45:19.518Z,31.80
2022-09-27T11:47:51.161Z,29.20
2022-09-27T11:50:33.912Z,28.70
2022-09-27T11:53:26.179Z,30.70
2022-09-27T11:56:43.308Z,28.80
2022-09-27T11:59:24.979Z,28.70
2022-09-27T12:02:18.226Z,28.60
2022-09-27T12:05:00.172Z,29.80
2022-09-27T12:07:58.710Z,30.80
2022-09-27T12:10:36.170Z,30.40
2022-09-27T12:13:35.247Z,28.00
2022-09-27T12:16:20.113Z,26.60
2022-09-27T12:19:21.173Z,29.70
2022-09-27T12:22:59.952Z,32.80
2022-09-27T12:26:30.529Z,32.20
2022-09-27T12:29:45.665Z,34.70
2022-09-27T12:32:50.975Z,33.30
2022-09-27T12:36:17.165Z,35.60
2022-09-27T12:39:09.247Z,32.10
2022-09-27T12:41:50.132Z,33.50
2022-09-27T12:44:44.916Z,27.80
2022-09-27T12:48:16.120Z,28.70
2022-09-27T12:51:52.940Z,30.60
2022-09-27T12:54:51.867Z,30.90
2022-09-27T12:57:52.253Z,31.80
2022-09-27T13:00:44.252Z,31.10
2022-09-27T13:03:36.297Z,31.60
2022-09-27T13:06:40.748Z,32.00
2022-09-27T13:10:09.247Z,31.40
2022-09-27T13:13:08.037Z,29.30
2022-09-27T13:16:07.067Z,29.30
2022-09-27T13:18:56.573Z,32.40
2022-09-27T13:22:05.183Z,33.00
2022-09-27T13:25:10.146Z,32.30
2022-09-27T13:28:35.828Z,34.60
2022-09-27T13:31:33.884Z,33.40
2022-09-27T13:34:19.914Z,34.60
2022-09-27T13:37:46.785Z,39.80
2022-09-27T13:40:32.559Z,34.30
2022-09-27T13:44:05.536Z,31.90
2022-09-27T13:47:03.393Z,37.30
2022-09-27T13:49:55.106Z,34.40
2022-09-27T13:52:59.314Z,34.30
2022-09-27T13:55:59.440Z,36.30
2022-09-27T13:58:46.666Z,34.50
2022-09-27T14:02:30.410Z,31.20
2022-09-27T14:05:15.478Z,33.60
2022-09-27T14:08:00.144Z,35.20
2022-09-27T14:10:40.278Z,30.10
2022-09-27T14:14:00.191Z,25.70
2022-09-27T14:16:46.716Z,25.20
2022-09-27T14:19:37.548Z,24.00
2022-09-27T14:22:29.089Z,25.20
2022-09-27T14:25:22.194Z,23.70
2022-09-27T14:28:15.218Z,24.80
2022-09-27T14:31:29.881Z,25.00
2022-09-27T14:34:31.973Z,22.70
2022-09-27T14:37:28.014Z,23.80
2022-09-27T14:40:20.174Z,21.20
2022-09-27T14:43:05.264Z,22.30
2022-09-27T14:45:57.042Z,22.00
2022-09-27T14:49:05.198Z,21.10
2022-09-27T14:51:49.114Z,21.50
2022-09-27T14:54:37.135Z,21.10
2022-09-27T14:57:24.204Z,19.20
2022-09-27T15:00:41.890Z,22.30
2022-09-27T15:03:27.203Z,22.80
2022-09-27T15:06:16.110Z,19.70
2022-09-27T15:08:58.014Z,17.10
2022-09-27T15:11:51.893Z,18.20
2022-09-27T15:14:41.515Z,18.30
2022-09-27T15:17:46.131Z,17.70
2022-09-27T15:20:35.278Z,15.60
2022-09-27T15:23:27.016Z,17.10
2022-09-27T15:26:27.947Z,19.00
2022-09-27T15:29:25.154Z,17.80
2022-09-27T15:32:07.160Z,15.80
2022-09-27T15:35:11.145Z,16.00
2022-09-27T15:38:05.118Z,17.00
2022-09-27T15:40:47.132Z,17.00
2022-09-27T15:44:05.230Z,17.30
2022-09-27T15:46:54.151Z,14.60
2022-09-27T15:49:41.157Z,14.40
2022-09-27T15:52:26.493Z,15.60
2022-09-27T15:55:05.130Z,14.60
2022-09-27T15:57:51.073Z,13.80
2022-09-27T16:00:44.061Z,15.20
2022-09-27T16:03:32.268Z,14.30
2022-09-27T16:06:32.970Z,16.50
2022-09-27T16:09:35.401Z,15.50
2022-09-27T16:12:54.067Z,15.10
2022-09-27T16:15:51.127Z,14.60
2022-09-27T16:22:29.365Z,13.00
2022-09-27T16:25:24.170Z,14.60
2022-09-27T16:28:26.071Z,13.90
2022-09-27T16:31:24.050Z,14.50
2022-09-27T16:34:09.895Z,13.80
2022-09-27T16:36:44.160Z,13.70
2022-09-27T16:39:43.943Z,13.50
2022-09-27T16:42:29.916Z,13.10
2022-09-27T16:45:18.307Z,11.90
2022-09-27T16:48:05.121Z,12.00
2022-09-27T16:50:58.258Z,12.70
2022-09-27T16:53:48.159Z,14.40
2022-09-27T16:56:50.279Z,14.60
2022-09-27T16:59:58.079Z,13.90
2022-09-27T17:02:54.971Z,13.00
2022-09-27T17:05:34.331Z,15.40
2022-09-27T17:08:17.815Z,13.80
2022-09-27T17:11:10.969Z,13.00
2022-09-27T17:13:58.924Z,12.60
2022-09-27T17:16:34.969Z,14.10
2022-09-27T17:19:19.652Z,13.00
2022-09-27T17:22:03.015Z,13.30
2022-09-27T17:24:47.955Z,13.00
2022-09-27T17:27:25.817Z,13.80
2022-09-27T17:30:10.952Z,13.20
2022-09-27T17:32:52.970Z,14.40
2022-09-27T17:35:33.004Z,13.90
2022-09-27T17:38:07.935Z,14.90
2022-09-27T17:40:45.972Z,14.30
2022-09-27T17:43:50.520Z,16.50
2022-09-27T17:46:46.077Z,20.30
2022-09-27T17:50:00.419Z,18.40
2022-09-27T17:52:54.887Z,18.70
2022-09-27T17:55:43.029Z,19.20
2022-09-27T17:58:34.208Z,16.80
2022-09-27T18:01:31.393Z,18.20
2022-09-27T18:04:20.167Z,21.50
2022-09-27T18:07:03.306Z,20.20
2022-09-27T18:09:51.917Z,19.30
2022-09-27T18:12:44.183Z,19.50
2022-09-27T18:15:53.447Z,18.60
2022-09-27T18:18:45.554Z,17.40
2022-09-27T18:21:27.952Z,17.00
2022-09-27T18:24:15.481Z,18.20
2022-09-27T18:27:16.569Z,20.20
2022-09-27T18:30:03.849Z,18.90
2022-09-27T18:35:37.852Z,19.90
2022-09-27T18:39:01.844Z,17.50
2022-09-27T18:41:48.217Z,16.90
2022-09-27T18:45:25.276Z,16.50
2022-09-27T18:48:43.347Z,18.50
2022-09-27T18:51:38.165Z,19.60
2022-09-27T18:54:23.290Z,18.90
2022-09-27T18:57:13.129Z,19.20
2022-09-27T18:59:53.063Z,17.80
2022-09-27T19:02:41.534Z,17.60
2022-09-27T19:05:35.296Z,17.10
2022-09-27T19:08:09.343Z,17.30
2022-09-27T19:11:47.839Z,17.30
2022-09-27T19:14:25.188Z,17.70
2022-09-27T19:17:23.156Z,17.30
2022-09-27T19:20:11.966Z,15.50
2022-09-27T19:23:48.172Z,15.90
2022-09-27T19:27:04.466Z,15.30
2022-09-27T19:29:41.073Z,15.70
2022-09-27T19:32:44.017Z,15.50
2022-09-27T19:35:51.265Z,16.70
2022-09-27T19:38:36.891Z,17.10
2022-09-27T19:41:22.086Z,17.40
2022-09-27T19:44:16.276Z,15.40
2022-09-27T19:46:49.879Z,14.70
2022-09-27T19:49:44.168Z,15.50
2022-09-27T19:52:28.221Z,17.40
2022-09-27T19:55:18.935Z,17.00
2022-09-27T19:58:07.062Z,17.80
2022-09-27T20:00:56.343Z,17.50
2022-09-27T20:04:00.625Z,17.20
2022-09-27T20:06:50.034Z,17.10
2022-09-27T20:09:39.989Z,16.90
2022-09-27T20:12:14.917Z,16.70
2022-09-27T20:15:01.700Z,18.40
2022-09-27T20:17:37.925Z,18.00
2022-09-27T20:20:28.761Z,19.00
2022-09-27T20:23:08.994Z,19.30
2022-09-27T20:25:45.741Z,18.80
2022-09-27T20:28:29.814Z,19.20
2022-09-27T20:31:07.682Z,17.90
2022-09-27T20:33:44.571Z,17.60
2022-09-27T20:36:22.105Z,19.50
2022-09-27T20:39:10.095Z,20.90
2022-09-27T20:41:51.709Z,19.80
2022-09-27T20:44:35.197Z,20.50
2022-09-27T20:47:28.752Z,20.50
2022-09-27T20:50:06.845Z,20.20
2022-09-27T20:52:42.975Z,18.70
2022-09-27T20:55:26.916Z,19.20
2022-09-27T20:58:16.742Z,18.50
2022-09-27T21:01:12.947Z,19.20
2022-09-27T21:03:55.807Z,19.20
2022-09-27T21:06:32.852Z,20.80
2022-09-27T21:09:19.138Z,21.10
2022-09-27T21:11:57.897Z,19.90
2022-09-27T21:14:41.592Z,18.40
2022-09-27T21:17:36.808Z,18.60
2022-09-27T21:20:11.972Z,19.30
2022-09-27T21:23:04.771Z,20.20
2022-09-27T21:25:41.905Z,20.70
2022-09-27T21:28:33.832Z,20.60
2022-09-27T21:31:23.903Z,19.50
2022-09-27T21:34:08.774Z,20.00
2022-09-27T21:36:52.545Z,18.90
2022-09-27T21:39:38.705Z,19.80
2022-09-27T21:42:21.888Z,20.30
2022-09-27T21:44:58.779Z,20.10
2022-09-27T21:47:51.829Z,20.10
2022-09-27T21:50:43.006Z,20.40
2022-09-27T21:53:32.611Z,19.40
2022-09-27T21:56:12.721Z,17.40
2022-09-27T21:58:56.839Z,18.60
2022-09-27T22:01:40.711Z,19.20
2022-09-27T22:04:20.856Z,19.40
2022-09-27T22:07:10.809Z,17.50
2022-09-27T22:12:32.677Z,20.80
2022-09-27T22:15:12.751Z,20.10
2022-09-27T22:17:57.586Z,18.20
2022-09-27T22:20:47.126Z,18.90
2022-09-27T22:23:38.681Z,18.30
2022-09-27T22:26:26.699Z,20.00
2022-09-27T22:29:16.698Z,20.50
2022-09-27T22:32:01.695Z,22.20
2022-09-27T22:34:40.627Z,19.70
2022-09-27T22:37:26.780Z,19.40
2022-09-27T22:40:08.727Z,19.50
2022-09-27T22:42:54.689Z,22.60
2022-09-27T22:45:41.731Z,19.90
2022-09-27T22:48:20.615Z,20.60
2022-09-27T22:51:08.374Z,21.90
2022-09-27T22:53:47.695Z,20.10
2022-09-27T22:56:36.827Z,18.30
2022-09-27T22:59:19.878Z,18.90
2022-09-27T23:02:12.490Z,20.10
2022-09-27T23:05:05.758Z,22.00
2022-09-27T23:08:02.905Z,20.10
2022-09-27T23:10:46.736Z,22.10
2022-09-27T23:13:35.710Z,20.90
2022-09-27T23:16:17.523Z,19.10
2022-09-27T23:19:03.557Z,19.50
2022-09-27T23:21:45.607Z,18.80
2022-09-27T23:24:31.492Z,18.80
2022-09-27T23:27:38.637Z,21.20
2022-09-27T23:30:21.532Z,20.60
2022-09-27T23:33:12.901Z,19.00
2022-09-27T23:35:57.700Z,18.70
2022-09-27T23:38:54.744Z,18.80
2022-09-27T23:41:49.605Z,19.70
2022-09-27T23:44:36.537Z,20.50
2022-09-27T23:47:30.651Z,21.60
2022-09-27T23:50:27.846Z,20.30
2022-09-27T23:53:22.595Z,19.00
2022-09-27T23:56:10.752Z,18.90
2022-09-27T23:58:53.651Z,18.80
